createdAt,value
2022-10-06T00:01:15.665Z,14.03
2022-10-06T00:03:45.990Z,13.85
2022-10-06T00:06:17.410Z,14.16
2022-10-06T00:08:47.929Z,14.11
2022-10-06T00:11:17.974Z,14.14
2022-10-06T00:13:48.159Z,13.89
2022-10-06T00:16:21.816Z,13.85
2022-10-06T00:18:51.527Z,13.45
2022-10-06T00:21:20.980Z,13.45
2022-10-06T00:23:50.237Z,13.59
2022-10-06T00:26:19.142Z,13.59
2022-10-06T00:28:50.359Z,13.26
2022-10-06T00:31:20.583Z,13.44
2022-10-06T00:33:51.315Z,13.45
2022-10-06T00:36:21.337Z,13.57
2022-10-06T00:38:53.356Z,13.27
2022-10-06T00:41:26.952Z,13.63
2022-10-06T00:43:58.041Z,13.71
2022-10-06T00:46:35.127Z,13.69
2022-10-06T00:49:13.947Z,13.71
2022-10-06T00:51:46.885Z,13.61
2022-10-06T00:54:16.495Z,13.57
2022-10-06T00:56:46.557Z,13.58
2022-10-06T00:59:20.546Z,13.61
2022-10-06T01:01:57.087Z,13.10
2022-10-06T01:04:28.038Z,13.41
2022-10-06T01:07:00.902Z,13.41
2022-10-06T01:09:31.434Z,13.49
2022-10-06T01:12:04.276Z,13.50
2022-10-06T01:14:36.727Z,13.47
2022-10-06T01:17:10.735Z,13.44
2022-10-06T01:19:50.103Z,13.44
2022-10-06T01:22:27.502Z,13.56
2022-10-06T01:25:03.942Z,13.45
2022-10-06T01:27:36.783Z,12.40
2022-10-06T01:30:10.815Z,13.36
2022-10-06T01:32:42.026Z,13.32
2022-10-06T01:35:12.006Z,13.36
2022-10-06T01:37:43.688Z,13.26
2022-10-06T01:40:12.542Z,13.36
2022-10-06T01:42:41.496Z,13.37
2022-10-06T01:45:11.259Z,13.27
2022-10-06T01:47:40.439Z,13.16
2022-10-06T01:50:09.649Z,13.04
2022-10-06T01:52:38.944Z,13.12
2022-10-06T01:55:10.096Z,13.20
2022-10-06T01:57:43.177Z,13.11
2022-10-06T02:00:14.619Z,13.11
2022-10-06T02:02:44.958Z,13.01
2022-10-06T02:05:15.751Z,13.14
2022-10-06T02:07:49.703Z,12.94
2022-10-06T02:10:20.309Z,13.14
2022-10-06T02:12:51.997Z,13.08
2022-10-06T02:15:22.543Z,13.08
2022-10-06T02:17:51.551Z,12.85
2022-10-06T02:20:20.768Z,12.80
2022-10-06T02:22:50.002Z,12.69
2022-10-06T02:25:21.048Z,12.72
2022-10-06T02:27:51.124Z,12.41
2022-10-06T02:30:20.463Z,12.79
2022-10-06T02:32:49.420Z,12.34
2022-10-06T02:35:18.698Z,12.61
2022-10-06T02:37:47.875Z,12.58
2022-10-06T02:40:21.245Z,12.62
2022-10-06T02:42:50.349Z,12.63
2022-10-06T02:45:22.612Z,12.50
2022-10-06T02:47:52.599Z,12.41
2022-10-06T02:50:21.754Z,12.52
2022-10-06T02:52:51.027Z,12.56
2022-10-06T02:55:21.395Z,12.53
2022-10-06T02:57:50.424Z,12.38
2022-10-06T03:00:19.489Z,12.41
2022-10-06T03:02:50.421Z,12.42
2022-10-06T03:05:19.316Z,12.43
2022-10-06T03:07:48.843Z,12.37
2022-10-06T03:10:18.138Z,11.85
2022-10-06T03:12:48.420Z,12.22
2022-10-06T03:15:21.120Z,12.26
2022-10-06T03:17:50.714Z,12.21
2022-10-06T03:20:20.240Z,12.31
2022-10-06T03:22:49.733Z,12.21
2022-10-06T03:25:19.861Z,12.24
2022-10-06T03:27:50.553Z,12.17
2022-10-06T03:30:19.742Z,12.08
2022-10-06T03:32:49.776Z,12.13
2022-10-06T03:35:18.783Z,12.15
2022-10-06T03:37:48.170Z,12.06
2022-10-06T03:40:17.265Z,11.85
2022-10-06T03:42:46.241Z,12.16
2022-10-06T03:45:16.855Z,12.13
2022-10-06T03:47:46.086Z,12.20
2022-10-06T03:50:15.615Z,11.78
2022-10-06T03:52:44.663Z,12.06
2022-10-06T03:55:13.963Z,11.91
2022-10-06T03:57:43.177Z,12.08
2022-10-06T04:00:14.600Z,11.94
2022-10-06T04:02:44.944Z,11.93
2022-10-06T04:05:14.211Z,12.06
2022-10-06T04:07:43.677Z,12.03
2022-10-06T04:10:13.159Z,11.91
2022-10-06T04:12:42.194Z,11.55
2022-10-06T04:15:12.099Z,11.89
2022-10-06T04:17:40.965Z,12.19
2022-10-06T04:20:11.344Z,12.18
2022-10-06T04:22:40.475Z,12.02
2022-10-06T04:25:10.628Z,12.01
2022-10-06T04:27:40.228Z,12.15
2022-10-06T04:30:13.340Z,12.08
2022-10-06T04:32:43.241Z,12.11
2022-10-06T04:35:14.060Z,12.04
2022-10-06T04:37:43.012Z,12.20
2022-10-06T04:40:12.489Z,11.96
2022-10-06T04:42:41.677Z,12.07
2022-10-06T04:45:15.630Z,12.16
2022-10-06T04:47:45.737Z,12.00
2022-10-06T04:50:16.330Z,12.04
2022-10-06T04:53:05.732Z,12.25
2022-10-06T04:55:35.070Z,12.17
2022-10-06T04:58:05.655Z,12.06
2022-10-06T05:00:34.580Z,12.18
2022-10-06T05:03:03.475Z,12.18
2022-10-06T05:05:34.092Z,12.24
2022-10-06T05:08:03.720Z,12.16
2022-10-06T05:10:33.325Z,12.25
2022-10-06T05:13:03.843Z,12.20
2022-10-06T05:15:33.419Z,12.13
2022-10-06T05:18:02.932Z,12.11
2022-10-06T05:20:33.633Z,12.63
2022-10-06T05:23:03.362Z,11.86
2022-10-06T05:25:33.173Z,12.49
2022-10-06T05:28:02.722Z,12.41
2022-10-06T05:30:31.674Z,12.58
2022-10-06T05:33:00.631Z,12.70
2022-10-06T05:35:30.224Z,12.47
2022-10-06T05:38:00.958Z,12.64
2022-10-06T05:40:30.713Z,12.58
2022-10-06T05:42:59.934Z,12.86
2022-10-06T05:45:29.577Z,12.71
2022-10-06T05:47:58.714Z,12.66
2022-10-06T05:50:28.225Z,12.52
2022-10-06T05:52:57.597Z,13.03
2022-10-06T05:55:27.816Z,13.08
2022-10-06T05:57:57.697Z,13.18
2022-10-06T06:00:27.208Z,13.00
2022-10-06T06:02:56.751Z,13.19
2022-10-06T06:05:26.027Z,13.31
2022-10-06T06:07:55.166Z,12.86
2022-10-06T06:10:24.386Z,13.42
2022-10-06T06:12:55.055Z,13.64
2022-10-06T06:16:01.777Z,13.58
2022-10-06T06:18:32.915Z,13.51
2022-10-06T06:21:04.419Z,13.45
2022-10-06T06:23:35.511Z,13.62
2022-10-06T06:26:07.208Z,13.72
2022-10-06T06:28:42.407Z,13.89
2022-10-06T06:31:19.154Z,13.87
2022-10-06T06:33:53.909Z,13.98
2022-10-06T06:36:25.107Z,14.04
2022-10-06T06:38:55.797Z,13.88
2022-10-06T06:41:27.379Z,14.27
2022-10-06T06:44:06.924Z,14.34
2022-10-06T06:46:43.378Z,14.08
2022-10-06T06:49:17.355Z,14.13
2022-10-06T06:51:51.205Z,14.39
2022-10-06T06:54:22.538Z,13.76
2022-10-06T06:56:56.766Z,14.32
2022-10-06T06:59:29.343Z,14.67
2022-10-06T07:01:59.953Z,14.05
2022-10-06T07:04:32.950Z,14.47
2022-10-06T07:07:02.757Z,14.71
2022-10-06T07:09:34.918Z,14.92
2022-10-06T07:12:07.518Z,14.71
2022-10-06T07:14:58.174Z,14.73
2022-10-06T07:17:46.406Z,15.17
2022-10-06T07:20:35.344Z,15.50
2022-10-06T07:23:22.827Z,15.15
2022-10-06T07:25:53.788Z,15.13
2022-10-06T07:28:23.754Z,15.44
2022-10-06T07:30:55.261Z,15.68
2022-10-06T07:33:24.784Z,15.89
2022-10-06T07:35:55.127Z,15.18
2022-10-06T07:38:26.143Z,15.78
2022-10-06T07:43:49.519Z,16.27
2022-10-06T07:46:20.616Z,16.46
2022-10-06T07:48:58.453Z,16.41
2022-10-06T07:51:28.512Z,15.73
2022-10-06T07:54:00.185Z,15.96
2022-10-06T07:56:37.158Z,16.22
2022-10-06T07:59:06.729Z,16.29
2022-10-06T08:01:37.527Z,15.88
2022-10-06T08:04:07.162Z,16.08
2022-10-06T08:06:36.104Z,16.15
2022-10-06T08:09:05.885Z,16.54
2022-10-06T08:11:35.507Z,16.61
2022-10-06T08:14:04.707Z,16.66
2022-10-06T08:16:34.977Z,16.67
2022-10-06T08:19:05.700Z,16.97
2022-10-06T08:21:35.569Z,16.90
2022-10-06T08:24:04.837Z,16.83
2022-10-06T08:26:34.681Z,16.45
2022-10-06T08:29:04.773Z,16.99
2022-10-06T08:31:34.411Z,16.85
2022-10-06T08:34:11.761Z,16.79
2022-10-06T08:36:48.271Z,17.11
2022-10-06T08:39:31.926Z,17.45
2022-10-06T08:42:01.712Z,17.37
2022-10-06T08:44:35.793Z,18.11
2022-10-06T08:47:11.842Z,17.94
2022-10-06T08:49:46.018Z,17.86
2022-10-06T08:52:26.492Z,18.41
2022-10-06T08:55:05.074Z,17.82
2022-10-06T08:57:43.333Z,18.33
2022-10-06T09:00:18.010Z,18.40
2022-10-06T09:02:51.054Z,18.09
2022-10-06T09:05:25.688Z,17.84
2022-10-06T09:08:20.850Z,18.16
2022-10-06T09:11:07.269Z,18.27
2022-10-06T09:13:42.446Z,18.90
2022-10-06T09:16:16.937Z,18.71
2022-10-06T09:19:07.659Z,18.84
2022-10-06T09:21:42.233Z,18.58
2022-10-06T09:24:16.842Z,18.43
2022-10-06T09:26:50.925Z,18.42
2022-10-06T09:29:20.136Z,19.15
2022-10-06T09:31:50.926Z,19.76
2022-10-06T09:34:27.323Z,19.02
2022-10-06T09:37:03.940Z,19.05
2022-10-06T09:39:37.424Z,19.03
2022-10-06T09:42:13.443Z,19.75
2022-10-06T09:44:54.922Z,19.26
2022-10-06T09:47:36.384Z,19.79
2022-10-06T09:50:16.334Z,19.57
2022-10-06T09:53:05.901Z,19.88
2022-10-06T09:55:45.173Z,20.59
2022-10-06T09:58:22.972Z,20.76
2022-10-06T10:00:56.019Z,21.11
2022-10-06T10:03:27.291Z,21.26
2022-10-06T10:05:56.815Z,22.72
2022-10-06T10:08:30.868Z,22.47
2022-10-06T10:11:37.347Z,25.66
2022-10-06T10:14:17.533Z,24.18
2022-10-06T10:16:53.107Z,27.41
2022-10-06T10:19:28.129Z,28.46
2022-10-06T10:21:57.748Z,26.20
2022-10-06T10:24:55.321Z,26.82
2022-10-06T10:27:31.905Z,29.00
2022-10-06T10:30:09.362Z,27.52
2022-10-06T10:32:58.257Z,27.68
2022-10-06T10:35:31.955Z,28.52
2022-10-06T10:38:05.168Z,25.29
2022-10-06T10:40:43.140Z,29.25
2022-10-06T10:43:18.875Z,28.15
2022-10-06T10:45:52.330Z,28.35
2022-10-06T10:48:30.697Z,29.26
2022-10-06T10:51:06.950Z,30.30
2022-10-06T10:53:47.417Z,30.17
2022-10-06T10:56:21.009Z,32.39
2022-10-06T10:58:55.048Z,34.63
2022-10-06T11:01:34.035Z,29.53
2022-10-06T11:04:04.182Z,27.76
2022-10-06T11:07:04.783Z,31.72
2022-10-06T11:09:46.524Z,31.29
2022-10-06T11:12:29.616Z,34.22
2022-10-06T11:15:04.311Z,31.54
2022-10-06T11:17:45.599Z,29.46
2022-10-06T11:20:48.110Z,28.76
2022-10-06T11:23:30.547Z,29.42
2022-10-06T11:26:09.374Z,31.04
2022-10-06T11:28:46.046Z,29.42
2022-10-06T11:31:25.170Z,30.56
2022-10-06T11:34:01.042Z,31.48
2022-10-06T11:36:39.370Z,34.39
2022-10-06T11:39:20.587Z,31.32
2022-10-06T11:41:54.195Z,32.69
2022-10-06T11:44:35.109Z,35.51
2022-10-06T11:47:07.495Z,31.02
2022-10-06T11:49:52.340Z,31.00
2022-10-06T11:52:46.640Z,30.41
2022-10-06T11:55:23.967Z,30.49
2022-10-06T12:01:06.984Z,29.92
2022-10-06T12:04:14.674Z,33.40
2022-10-06T12:06:55.184Z,37.79
2022-10-06T12:09:40.361Z,31.54
2022-10-06T12:13:21.307Z,35.26
2022-10-06T12:19:21.332Z,34.97
2022-10-06T12:22:02.416Z,34.61
2022-10-06T12:24:38.155Z,31.42
2022-10-06T12:27:25.910Z,32.37
2022-10-06T12:30:04.181Z,30.36
2022-10-06T12:32:47.702Z,32.98
2022-10-06T12:35:25.078Z,36.53
2022-10-06T12:37:55.663Z,38.65
2022-10-06T12:40:51.563Z,36.20
2022-10-06T12:43:34.664Z,35.37
2022-10-06T12:46:07.780Z,31.77
2022-10-06T12:48:44.849Z,33.08
2022-10-06T12:51:30.523Z,35.53
2022-10-06T12:54:09.148Z,35.40
2022-10-06T12:56:40.727Z,33.20
2022-10-06T12:59:20.939Z,31.70
2022-10-06T13:01:52.379Z,28.65
2022-10-06T13:04:38.202Z,26.71
2022-10-06T13:07:16.362Z,26.18
2022-10-06T13:09:47.213Z,25.84
2022-10-06T13:12:28.428Z,25.78
2022-10-06T13:15:33.439Z,27.39
2022-10-06T13:18:13.145Z,29.06
2022-10-06T13:20:48.058Z,31.76
2022-10-06T13:23:25.568Z,27.59
2022-10-06T13:25:57.872Z,27.69
2022-10-06T13:28:45.865Z,30.05
2022-10-06T13:31:21.281Z,32.45
2022-10-06T13:33:54.031Z,31.81
2022-10-06T13:36:25.615Z,31.97
2022-10-06T13:38:54.622Z,31.68
2022-10-06T13:41:28.535Z,31.52
2022-10-06T13:44:00.437Z,34.43
2022-10-06T13:46:32.571Z,30.93
2022-10-06T13:49:08.766Z,32.39
2022-10-06T13:51:39.316Z,26.93
2022-10-06T13:54:25.391Z,24.36
2022-10-06T13:56:55.367Z,24.76
2022-10-06T13:59:38.782Z,24.90
2022-10-06T14:02:33.838Z,24.13
2022-10-06T14:05:25.311Z,23.47
2022-10-06T14:08:00.113Z,22.85
2022-10-06T14:10:36.423Z,22.88
2022-10-06T14:13:12.148Z,22.24
2022-10-06T14:15:50.437Z,22.24
2022-10-06T14:18:24.566Z,22.23
2022-10-06T14:20:55.064Z,22.57
2022-10-06T14:23:41.057Z,22.64
2022-10-06T14:26:11.783Z,22.36
2022-10-06T14:28:41.543Z,22.20
2022-10-06T14:31:14.441Z,22.12
2022-10-06T14:33:44.441Z,22.84
2022-10-06T14:36:17.452Z,22.44
2022-10-06T14:38:49.821Z,22.11
2022-10-06T14:41:24.612Z,21.58
2022-10-06T14:43:54.689Z,21.83
2022-10-06T14:46:25.277Z,21.29
2022-10-06T14:48:54.797Z,20.64
2022-10-06T14:51:26.573Z,21.30
2022-10-06T14:53:58.452Z,20.43
2022-10-06T14:56:29.142Z,21.32
2022-10-06T14:59:00.169Z,21.00
2022-10-06T15:01:30.056Z,20.46
2022-10-06T15:04:01.812Z,20.65
2022-10-06T15:06:48.447Z,20.78
2022-10-06T15:09:19.217Z,20.25
2022-10-06T15:11:48.387Z,20.58
2022-10-06T15:14:18.103Z,20.48
2022-10-06T15:16:47.672Z,20.64
2022-10-06T15:19:17.389Z,20.41
2022-10-06T15:21:47.103Z,20.38
2022-10-06T15:24:19.139Z,20.12
2022-10-06T15:27:06.462Z,20.13
2022-10-06T15:29:36.201Z,19.76
2022-10-06T15:32:07.197Z,19.96
2022-10-06T15:34:37.940Z,19.96
2022-10-06T15:37:08.129Z,19.84
2022-10-06T15:39:38.900Z,19.74
2022-10-06T15:42:08.858Z,19.82
2022-10-06T15:44:38.486Z,19.75
2022-10-06T15:47:08.774Z,19.84
2022-10-06T15:49:41.661Z,19.52
2022-10-06T15:52:13.787Z,19.64
2022-10-06T15:54:50.128Z,19.55
2022-10-06T15:57:21.418Z,19.57
2022-10-06T15:59:51.576Z,19.50
2022-10-06T16:02:22.500Z,19.42
2022-10-06T16:05:12.912Z,19.42
2022-10-06T16:07:42.578Z,19.46
2022-10-06T16:10:13.732Z,19.41
2022-10-06T16:12:43.344Z,19.41
2022-10-06T16:15:12.611Z,19.27
2022-10-06T16:17:43.591Z,19.21
2022-10-06T16:20:15.330Z,19.01
2022-10-06T16:22:44.418Z,19.30
2022-10-06T16:25:14.952Z,19.10
2022-10-06T16:27:44.443Z,18.74
2022-10-06T16:30:13.662Z,18.95
2022-10-06T16:32:43.121Z,19.05
2022-10-06T16:35:17.438Z,18.61
2022-10-06T16:37:50.081Z,18.71
2022-10-06T16:40:22.752Z,18.70
2022-10-06T16:42:53.294Z,18.59
2022-10-06T16:45:23.386Z,18.64
2022-10-06T16:47:52.381Z,18.56
2022-10-06T16:50:22.138Z,18.69
2022-10-06T16:52:52.272Z,18.43
2022-10-06T16:55:23.342Z,18.34
2022-10-06T16:57:53.382Z,18.38
2022-10-06T17:00:22.499Z,18.23
2022-10-06T17:02:52.584Z,18.13
2022-10-06T17:05:21.894Z,18.38
2022-10-06T17:07:53.490Z,18.26
2022-10-06T17:10:26.485Z,18.13
2022-10-06T17:12:55.624Z,18.06
2022-10-06T17:15:24.893Z,17.96
2022-10-06T17:17:55.755Z,17.55
2022-10-06T17:20:25.148Z,18.01
2022-10-06T17:22:54.936Z,18.01
2022-10-06T17:25:25.847Z,17.96
2022-10-06T17:27:55.048Z,17.93
2022-10-06T17:30:24.162Z,18.05
2022-10-06T17:32:53.681Z,17.76
2022-10-06T17:35:23.210Z,17.89
2022-10-06T17:37:52.325Z,17.83
2022-10-06T17:40:21.551Z,17.88
2022-10-06T17:42:52.246Z,17.59
2022-10-06T17:45:21.655Z,17.47
2022-10-06T17:47:51.835Z,17.71
2022-10-06T17:50:21.241Z,17.76
2022-10-06T17:52:50.587Z,17.66
2022-10-06T17:55:19.595Z,17.55
2022-10-06T17:57:48.979Z,17.57
2022-10-06T18:00:20.525Z,17.64
2022-10-06T18:02:50.041Z,17.49
2022-10-06T18:05:19.317Z,17.60
2022-10-06T18:07:48.660Z,17.65
2022-10-06T18:10:35.802Z,17.73
2022-10-06T18:13:04.711Z,17.67
2022-10-06T18:15:37.953Z,17.16
2022-10-06T18:18:08.000Z,16.82
2022-10-06T18:20:41.149Z,17.38
2022-10-06T18:23:10.760Z,17.48
2022-10-06T18:25:40.448Z,17.64
2022-10-06T18:28:10.534Z,17.71
2022-10-06T18:30:41.508Z,17.23
2022-10-06T18:36:17.856Z,17.51
2022-10-06T18:38:49.365Z,17.18
2022-10-06T18:41:20.662Z,17.48
2022-10-06T18:43:50.209Z,17.17
2022-10-06T18:46:38.445Z,17.42
2022-10-06T18:49:12.695Z,17.57
2022-10-06T18:51:44.447Z,17.45
2022-10-06T18:54:15.652Z,16.82
2022-10-06T18:56:50.049Z,16.96
2022-10-06T18:59:21.703Z,17.06
2022-10-06T19:01:52.767Z,17.61
2022-10-06T19:04:24.020Z,17.22
2022-10-06T19:06:56.681Z,17.25
2022-10-06T19:09:27.096Z,16.68
2022-10-06T19:11:58.219Z,17.08
2022-10-06T19:14:31.430Z,17.12
2022-10-06T19:17:04.406Z,17.02
2022-10-06T19:19:36.460Z,16.92
2022-10-06T19:22:11.441Z,16.76
2022-10-06T19:24:45.578Z,16.73
2022-10-06T19:27:20.815Z,16.64
2022-10-06T19:29:59.017Z,16.61
2022-10-06T19:32:42.179Z,17.07
2022-10-06T19:35:12.396Z,16.67
2022-10-06T19:37:42.237Z,16.95
2022-10-06T19:40:11.871Z,17.07
2022-10-06T19:42:51.158Z,16.32
2022-10-06T19:45:21.330Z,16.81
2022-10-06T19:47:55.457Z,16.89
2022-10-06T19:50:25.632Z,16.79
2022-10-06T19:53:01.448Z,16.90
2022-10-06T19:56:09.471Z,16.94
2022-10-06T19:58:39.009Z,16.73
2022-10-06T20:01:08.344Z,16.86
2022-10-06T20:03:42.933Z,16.77
2022-10-06T20:06:15.602Z,16.94
2022-10-06T20:08:44.701Z,16.73
2022-10-06T20:11:16.574Z,16.76
2022-10-06T20:13:46.423Z,16.62
2022-10-06T20:16:19.160Z,16.68
2022-10-06T20:18:51.367Z,16.68
2022-10-06T20:21:25.513Z,16.64
2022-10-06T20:23:58.484Z,16.66
2022-10-06T20:26:31.223Z,16.49
2022-10-06T20:29:01.751Z,16.71
2022-10-06T20:31:37.408Z,16.73
2022-10-06T20:34:11.274Z,16.72
2022-10-06T20:37:48.980Z,16.24
2022-10-06T20:40:49.616Z,16.66
2022-10-06T20:43:21.484Z,16.41
2022-10-06T20:45:56.796Z,16.70
2022-10-06T20:48:34.653Z,16.48
2022-10-06T20:51:11.117Z,16.36
2022-10-06T20:53:43.743Z,16.52
2022-10-06T20:56:14.723Z,16.70
2022-10-06T20:58:47.338Z,16.09
2022-10-06T21:01:17.858Z,16.64
2022-10-06T21:03:48.939Z,16.71
2022-10-06T21:06:19.570Z,16.61
2022-10-06T21:09:18.181Z,16.63
2022-10-06T21:11:49.741Z,16.59
2022-10-06T21:14:20.351Z,16.41
2022-10-06T21:16:53.414Z,16.38
2022-10-06T21:19:24.308Z,16.02
2022-10-06T21:21:56.909Z,16.60
2022-10-06T21:24:26.950Z,15.96
2022-10-06T21:26:57.108Z,16.56
2022-10-06T21:29:27.541Z,16.59
2022-10-06T21:31:56.763Z,16.21
2022-10-06T21:34:25.879Z,16.46
2022-10-06T21:36:56.406Z,16.65
2022-10-06T21:39:25.387Z,16.55
2022-10-06T21:41:57.214Z,16.68
2022-10-06T21:44:26.415Z,16.70
2022-10-06T21:46:56.422Z,16.72
2022-10-06T21:49:28.329Z,16.93
2022-10-06T21:52:03.674Z,16.72
2022-10-06T21:54:32.820Z,16.75
2022-10-06T21:57:02.100Z,16.34
2022-10-06T21:59:31.147Z,16.77
2022-10-06T22:02:00.252Z,16.94
2022-10-06T22:04:29.650Z,17.02
2022-10-06T22:07:00.163Z,16.81
2022-10-06T22:09:29.056Z,16.89
2022-10-06T22:11:58.418Z,17.02
2022-10-06T22:14:27.526Z,16.97
2022-10-06T22:16:56.724Z,16.62
2022-10-06T22:19:25.921Z,16.98
2022-10-06T22:21:55.777Z,17.01
2022-10-06T22:24:25.992Z,17.05
2022-10-06T22:26:55.000Z,16.95
2022-10-06T22:29:23.928Z,16.93
2022-10-06T22:31:53.067Z,16.96
2022-10-06T22:34:22.244Z,17.06
2022-10-06T22:36:51.170Z,17.03
2022-10-06T22:39:20.231Z,17.09
2022-10-06T22:41:50.467Z,17.14
2022-10-06T22:44:19.478Z,16.97
2022-10-06T22:46:48.864Z,17.05
2022-10-06T22:49:17.965Z,16.75
2022-10-06T22:51:47.243Z,17.17
2022-10-06T22:54:19.777Z,17.28
2022-10-06T22:56:50.145Z,16.90
2022-10-06T22:59:19.139Z,16.92
2022-10-06T23:01:48.173Z,16.57
2022-10-06T23:04:17.630Z,17.19
2022-10-06T23:06:46.748Z,16.88
2022-10-06T23:09:16.070Z,17.13
2022-10-06T23:11:45.026Z,17.22
2022-10-06T23:14:15.519Z,16.99
2022-10-06T23:16:44.668Z,16.69
2022-10-06T23:19:14.095Z,16.71
2022-10-06T23:21:44.508Z,16.71
2022-10-06T23:24:13.582Z,16.77
2022-10-06T23:26:42.653Z,16.68
2022-10-06T23:29:13.092Z,16.66
2022-10-06T23:31:43.597Z,16.01
2022-10-06T23:34:12.690Z,16.38
2022-10-06T23:36:41.567Z,16.42
2022-10-06T23:39:11.544Z,16.25
2022-10-06T23:41:42.029Z,16.36
2022-10-06T23:44:11.244Z,16.38
2022-10-06T23:46:40.271Z,16.27
2022-10-06T23:49:10.387Z,16.20
2022-10-06T23:51:39.597Z,16.15
2022-10-06T23:54:08.690Z,16.20
2022-10-06T23:56:37.578Z,16.05
2022-10-06T23:59:06.464Z,16.11
